sensor_id;sensor_type;location;lat;lon;timestamp;pressure;altitude;pressure_sealevel;temperature;humidity
64076;BME280;50327;51.328;12.324;2023-07-20T00:00:50;52589.97;;;-144.47;100.00
64076;BME280;50327;51.328;12.324;2023-07-20T00:03:19;52615.78;;;-144.47;100.00
64076;BME280;50327;51.328;12.324;2023-07-20T00:05:50;52593.94;;;-144.47;100.00
64076;BME280;50327;51.328;12.324;2023-07-20T00:08:16;52605.84;;;-144.47;100.00
64076;BME280;50327;51.328;12.324;2023-07-20T00:10:42;52605.84;;;-144.47;100.00
64076;BME280;50327;51.328;12.324;2023-07-20T00:13:08;52611.81;;;-144.47;100.00
64076;BME280;50327;51.328;12.324;2023-07-20T00:15:34;52601.88;;;-144.47;100.00
64076;BME280;50327;51.328;12.324;2023-07-20T00:17:59;52599.88;;;-144.47;100.00
64076;BME280;50327;51.328;12.324;2023-07-20T00:20:24;52589.97;;;-144.47;100.00
64076;BME280;50327;51.328;12.324;2023-07-20T00:22:50;52601.88;;;-144.47;100.00
64076;BME280;50327;51.328;12.324;2023-07-20T00:25:16;52621.72;;;-144.47;100.00
64076;BME280;50327;51.328;12.324;2023-07-20T00:27:42;52562.16;;;-144.47;100.00
64076;BME280;50327;51.328;12.324;2023-07-20T00:30:08;52584.00;;;-144.47;100.00
64076;BME280;50327;51.328;12.324;2023-07-20T00:32:33;52617.75;;;-144.47;100.00
64076;BME280;50327;51.328;12.324;2023-07-20T00:34:59;52629.69;;;-144.47;100.00
64076;BME280;50327;51.328;12.324;2023-07-20T00:37:24;52599.88;;;-144.47;100.00
64076;BME280;50327;51.328;12.324;2023-07-20T00:39:50;52619.75;;;-144.47;100.00
64076;BME280;50327;51.328;12.324;2023-07-20T00:42:16;52611.81;;;-144.47;100.00
64076;BME280;50327;51.328;12.324;2023-07-20T00:44:44;52593.94;;;-144.47;100.00
64076;BME280;50327;51.328;12.324;2023-07-20T00:47:09;52580.03;;;-144.47;100.00
64076;BME280;50327;51.328;12.324;2023-07-20T00:49:35;52621.72;;;-144.47;100.00
64076;BME280;50327;51.328;12.324;2023-07-20T00:52:01;52643.56;;;-144.47;100.00
64076;BME280;50327;51.328;12.324;2023-07-20T00:54:27;52593.94;;;-144.47;100.00
64076;BME280;50327;51.328;12.324;2023-07-20T00:56:53;52597.91;;;-144.47;100.00
64076;BME280;50327;51.328;12.324;2023-07-20T00:59:18;52627.69;;;-144.47;100.00
64076;BME280;50327;51.328;12.324;2023-07-20T01:01:44;52633.66;;;-144.47;100.00
64076;BME280;50327;51.328;12.324;2023-07-20T01:04:09;52621.72;;;-144.47;100.00
64076;BME280;50327;51.328;12.324;2023-07-20T01:09:26;52609.81;;;-144.47;100.00
64076;BME280;50327;51.328;12.324;2023-07-20T01:11:59;52599.88;;;-144.47;100.00
64076;BME280;50327;51.328;12.324;2023-07-20T01:14:29;52609.81;;;-144.47;100.00
64076;BME280;50327;51.328;12.324;2023-07-20T01:16:54;52597.91;;;-144.47;100.00
64076;BME280;50327;51.328;12.324;2023-07-20T01:19:20;52601.88;;;-144.47;100.00
64076;BME280;50327;51.328;12.324;2023-07-20T01:33:06;52631.66;;;-144.47;100.00
64076;BME280;50327;51.328;12.324;2023-07-20T01:35:34;52611.81;;;-144.47;100.00
64076;BME280;50327;51.328;12.324;2023-07-20T01:38:00;52568.13;;;-144.47;100.00
64076;BME280;50327;51.328;12.324;2023-07-20T01:40:26;52605.84;;;-144.47;100.00
64076;BME280;50327;51.328;12.324;2023-07-20T01:42:52;52593.94;;;-144.47;100.00
64076;BME280;50327;51.328;12.324;2023-07-20T01:45:18;52580.03;;;-144.47;100.00
64076;BME280;50327;51.328;12.324;2023-07-20T01:47:44;52601.88;;;-144.47;100.00
64076;BME280;50327;51.328;12.324;2023-07-20T01:50:09;52623.72;;;-144.47;100.00
64076;BME280;50327;51.328;12.324;2023-07-20T01:52:35;52595.91;;;-144.47;100.00
64076;BME280;50327;51.328;12.324;2023-07-20T01:55:00;52593.94;;;-144.47;100.00
64076;BME280;50327;51.328;12.324;2023-07-20T01:57:26;52631.66;;;-144.47;100.00
64076;BME280;50327;51.328;12.324;2023-07-20T01:59:51;52613.78;;;-144.47;100.00
64076;BME280;50327;51.328;12.324;2023-07-20T02:02:17;52597.91;;;-144.47;100.00
64076;BME280;50327;51.328;12.324;2023-07-20T02:04:43;52617.75;;;-144.47;100.00
64076;BME280;50327;51.328;12.324;2023-07-20T02:07:08;52605.84;;;-144.47;100.00
64076;BME280;50327;51.328;12.324;2023-07-20T02:09:34;52625.72;;;-144.47;100.00
64076;BME280;50327;51.328;12.324;2023-07-20T02:11:59;52661.44;;;-144.47;100.00
64076;BME280;50327;51.328;12.324;2023-07-20T02:14:24;52617.75;;;-144.47;100.00
64076;BME280;50327;51.328;12.324;2023-07-20T02:16:50;52609.81;;;-144.47;100.00
64076;BME280;50327;51.328;12.324;2023-07-20T02:19:25;52595.91;;;-144.47;100.00
64076;BME280;50327;51.328;12.324;2023-07-20T02:21:50;52607.84;;;-144.47;100.00
64076;BME280;50327;51.328;12.324;2023-07-20T02:24:15;52599.88;;;-144.47;100.00
64076;BME280;50327;51.328;12.324;2023-07-20T02:26:41;52621.72;;;-144.47;100.00
64076;BME280;50327;51.328;12.324;2023-07-20T02:29:07;52643.56;;;-144.47;100.00
64076;BME280;50327;51.328;12.324;2023-07-20T02:31:33;52613.78;;;-144.47;100.00
64076;BME280;50327;51.328;12.324;2023-07-20T02:33:58;52597.91;;;-144.47;100.00
64076;BME280;50327;51.328;12.324;2023-07-20T02:36:24;52603.84;;;-144.47;100.00
64076;BME280;50327;51.328;12.324;2023-07-20T02:38:49;52627.69;;;-144.47;100.00
64076;BME280;50327;51.328;12.324;2023-07-20T02:41:15;52631.66;;;-144.47;100.00
64076;BME280;50327;51.328;12.324;2023-07-20T02:43:40;52639.59;;;-144.47;100.00
64076;BME280;50327;51.328;12.324;2023-07-20T02:46:08;52615.78;;;-144.47;100.00
64076;BME280;50327;51.328;12.324;2023-07-20T02:48:34;52627.69;;;-144.47;100.00
64076;BME280;50327;51.328;12.324;2023-07-20T02:51:00;52627.69;;;-144.47;100.00
64076;BME280;50327;51.328;12.324;2023-07-20T02:53:28;52615.78;;;-144.47;100.00
64076;BME280;50327;51.328;12.324;2023-07-20T02:55:53;52613.78;;;-144.47;100.00
64076;BME280;50327;51.328;12.324;2023-07-20T02:58:19;52627.69;;;-144.47;100.00
64076;BME280;50327;51.328;12.324;2023-07-20T03:00:44;52613.78;;;-144.47;100.00
64076;BME280;50327;51.328;12.324;2023-07-20T03:03:10;52621.72;;;-144.47;100.00
64076;BME280;50327;51.328;12.324;2023-07-20T03:05:40;52627.69;;;-144.47;100.00
64076;BME280;50327;51.328;12.324;2023-07-20T03:08:09;52609.81;;;-144.47;100.00
64076;BME280;50327;51.328;12.324;2023-07-20T03:10:41;52601.88;;;-144.47;100.00
64076;BME280;50327;51.328;12.324;2023-07-20T03:13:06;52615.78;;;-144.47;100.00
64076;BME280;50327;51.328;12.324;2023-07-20T03:17:59;52611.81;;;-144.47;100.00
64076;BME280;50327;51.328;12.324;2023-07-20T03:20:24;52613.78;;;-144.47;100.00
64076;BME280;50327;51.328;12.324;2023-07-20T03:22:50;52605.84;;;-144.47;100.00
64076;BME280;50327;51.328;12.324;2023-07-20T03:25:15;52631.66;;;-144.47;100.00
64076;BME280;50327;51.328;12.324;2023-07-20T03:27:41;52619.75;;;-144.47;100.00
64076;BME280;50327;51.328;12.324;2023-07-20T03:30:07;52635.63;;;-144.47;100.00
64076;BME280;50327;51.328;12.324;2023-07-20T03:32:34;52621.72;;;-144.47;100.00
64076;BME280;50327;51.328;12.324;2023-07-20T03:35:00;52615.78;;;-144.47;100.00
64076;BME280;50327;51.328;12.324;2023-07-20T03:37:25;52631.66;;;-144.47;100.00
64076;BME280;50327;51.328;12.324;2023-07-20T03:39:51;52613.78;;;-144.47;100.00
64076;BME280;50327;51.328;12.324;2023-07-20T03:42:16;52574.06;;;-144.47;100.00
64076;BME280;50327;51.328;12.324;2023-07-20T03:44:41;52621.72;;;-144.47;100.00
64076;BME280;50327;51.328;12.324;2023-07-20T03:47:07;52625.72;;;-144.47;100.00
64076;BME280;50327;51.328;12.324;2023-07-20T03:49:32;52617.75;;;-144.47;100.00
64076;BME280;50327;51.328;12.324;2023-07-20T03:51:58;52601.88;;;-144.47;100.00
64076;BME280;50327;51.328;12.324;2023-07-20T03:54:23;52611.81;;;-144.47;100.00
64076;BME280;50327;51.328;12.324;2023-07-20T03:56:48;52621.72;;;-144.47;100.00
64076;BME280;50327;51.328;12.324;2023-07-20T03:59:14;52621.72;;;-144.47;100.00
64076;BME280;50327;51.328;12.324;2023-07-20T04:01:39;52613.78;;;-144.47;100.00
64076;BME280;50327;51.328;12.324;2023-07-20T04:04:07;52617.75;;;-144.47;100.00
64076;BME280;50327;51.328;12.324;2023-07-20T04:06:33;52605.84;;;-144.47;100.00
64076;BME280;50327;51.328;12.324;2023-07-20T04:08:58;52629.69;;;-144.47;100.00
64076;BME280;50327;51.328;12.324;2023-07-20T04:11:24;52615.78;;;-144.47;100.00
64076;BME280;50327;51.328;12.324;2023-07-20T04:13:49;52615.78;;;-144.47;100.00
64076;BME280;50327;51.328;12.324;2023-07-20T04:16:14;52639.59;;;-144.47;100.00
64076;BME280;50327;51.328;12.324;2023-07-20T04:18:40;52635.63;;;-144.47;100.00
64076;BME280;50327;51.328;12.324;2023-07-20T04:21:07;52625.72;;;-144.47;100.00
64076;BME280;50327;51.328;12.324;2023-07-20T04:23:33;52603.84;;;-144.47;100.00
64076;BME280;50327;51.328;12.324;2023-07-20T04:25:58;52615.78;;;-144.47;100.00
64076;BME280;50327;51.328;12.324;2023-07-20T04:28:24;52649.53;;;-144.47;100.00
64076;BME280;50327;51.328;12.324;2023-07-20T04:30:49;52625.72;;;-144.47;100.00
64076;BME280;50327;51.328;12.324;2023-07-20T04:33:17;52617.75;;;-144.47;100.00
64076;BME280;50327;51.328;12.324;2023-07-20T04:38:14;52641.59;;;-144.47;100.00
64076;BME280;50327;51.328;12.324;2023-07-20T04:40:49;52637.63;;;-144.47;100.00
64076;BME280;50327;51.328;12.324;2023-07-20T04:43:16;52607.84;;;-144.47;100.00
64076;BME280;50327;51.328;12.324;2023-07-20T04:45:42;52613.78;;;-144.47;100.00
64076;BME280;50327;51.328;12.324;2023-07-20T04:48:11;52649.53;;;-144.47;100.00
64076;BME280;50327;51.328;12.324;2023-07-20T04:50:38;52639.59;;;-144.47;100.00
64076;BME280;50327;51.328;12.324;2023-07-20T04:53:03;52637.63;;;-144.47;100.00
64076;BME280;50327;51.328;12.324;2023-07-20T04:55:29;52595.91;;;-144.47;100.00
64076;BME280;50327;51.328;12.324;2023-07-20T04:57:54;52631.66;;;-144.47;100.00
64076;BME280;50327;51.328;12.324;2023-07-20T05:00:20;52633.66;;;-144.47;100.00
64076;BME280;50327;51.328;12.324;2023-07-20T05:02:47;52629.69;;;-144.47;100.00
64076;BME280;50327;51.328;12.324;2023-07-20T05:05:14;52613.78;;;-144.47;100.00
64076;BME280;50327;51.328;12.324;2023-07-20T05:07:40;52599.88;;;-144.47;100.00
64076;BME280;50327;51.328;12.324;2023-07-20T05:10:06;52609.81;;;-144.47;100.00
64076;BME280;50327;51.328;12.324;2023-07-20T05:12:31;52631.66;;;-144.47;100.00
64076;BME280;50327;51.328;12.324;2023-07-20T05:14:56;52633.66;;;-144.47;100.00
64076;BME280;50327;51.328;12.324;2023-07-20T05:17:22;52605.84;;;-144.47;100.00
64076;BME280;50327;51.328;12.324;2023-07-20T05:19:47;52621.72;;;-144.47;100.00
64076;BME280;50327;51.328;12.324;2023-07-20T05:22:17;52639.59;;;-144.47;100.00
64076;BME280;50327;51.328;12.324;2023-07-20T05:24:42;52645.56;;;-144.47;100.00
64076;BME280;50327;51.328;12.324;2023-07-20T05:27:08;52619.75;;;-144.47;100.00
64076;BME280;50327;51.328;12.324;2023-07-20T05:29:33;52613.78;;;-144.47;100.00
64076;BME280;50327;51.328;12.324;2023-07-20T05:31:58;52637.63;;;-144.47;100.00
64076;BME280;50327;51.328;12.324;2023-07-20T05:34:24;52611.81;;;-144.47;100.00
64076;BME280;50327;51.328;12.324;2023-07-20T05:36:49;52625.72;;;-144.47;100.00
64076;BME280;50327;51.328;12.324;2023-07-20T05:39:17;52613.78;;;-144.47;100.00
64076;BME280;50327;51.328;12.324;2023-07-20T05:41:43;52601.88;;;-144.47;100.00
64076;BME280;50327;51.328;12.324;2023-07-20T05:44:08;52633.66;;;-144.47;100.00
64076;BME280;50327;51.328;12.324;2023-07-20T05:46:33;52633.66;;;-144.47;100.00
64076;BME280;50327;51.328;12.324;2023-07-20T05:48:59;52609.81;;;-144.47;100.00
64076;BME280;50327;51.328;12.324;2023-07-20T05:51:24;52639.59;;;-144.47;100.00
64076;BME280;50327;51.328;12.324;2023-07-20T05:53:49;52625.72;;;-144.47;100.00
64076;BME280;50327;51.328;12.324;2023-07-20T05:56:15;52641.59;;;-144.47;100.00
64076;BME280;50327;51.328;12.324;2023-07-20T05:58:40;52613.78;;;-144.47;100.00
64076;BME280;50327;51.328;12.324;2023-07-20T06:01:06;52617.75;;;-144.47;100.00
64076;BME280;50327;51.328;12.324;2023-07-20T06:03:32;52637.63;;;-144.47;100.00
64076;BME280;50327;51.328;12.324;2023-07-20T06:06:01;52607.84;;;-144.47;99.89
64076;BME280;50327;51.328;12.324;2023-07-20T06:08:28;52615.78;;;-144.47;100.00
64076;BME280;50327;51.328;12.324;2023-07-20T06:10:54;52615.78;;;-144.47;99.06
64076;BME280;50327;51.328;12.324;2023-07-20T06:13:20;52631.66;;;-144.47;98.83
64076;BME280;50327;51.328;12.324;2023-07-20T06:15:45;52607.84;;;-144.47;96.37
64076;BME280;50327;51.328;12.324;2023-07-20T06:18:11;52623.72;;;-144.47;95.87
64076;BME280;50327;51.328;12.324;2023-07-20T06:20:36;52631.66;;;-144.47;95.83
64076;BME280;50327;51.328;12.324;2023-07-20T06:23:01;52609.81;;;-144.47;95.00
64076;BME280;50327;51.328;12.324;2023-07-20T06:25:27;52629.69;;;-144.47;95.70
64076;BME280;50327;51.328;12.324;2023-07-20T06:27:52;52629.69;;;-144.47;92.73
64076;BME280;50327;51.328;12.324;2023-07-20T06:30:19;52619.75;;;-144.47;92.85
64076;BME280;50327;51.328;12.324;2023-07-20T06:32:44;52643.56;;;-144.47;93.31
64076;BME280;50327;51.328;12.324;2023-07-20T06:35:09;52627.69;;;-144.47;93.45
64076;BME280;50327;51.328;12.324;2023-07-20T06:37:35;52611.81;;;-144.47;93.00
64076;BME280;50327;51.328;12.324;2023-07-20T06:40:02;52611.81;;;-144.47;92.84
64076;BME280;50327;51.328;12.324;2023-07-20T06:42:29;52601.88;;;-144.47;89.28
64076;BME280;50327;51.328;12.324;2023-07-20T06:44:54;52621.72;;;-144.47;89.73
64076;BME280;50327;51.328;12.324;2023-07-20T06:47:20;52615.78;;;-144.47;88.32
64076;BME280;50327;51.328;12.324;2023-07-20T06:49:45;52641.59;;;-144.47;87.71
64076;BME280;50327;51.328;12.324;2023-07-20T06:52:10;52621.72;;;-144.47;85.51
64076;BME280;50327;51.328;12.324;2023-07-20T06:54:36;52627.69;;;-144.47;84.60
64076;BME280;50327;51.328;12.324;2023-07-20T06:57:01;52615.78;;;-144.47;84.84
64076;BME280;50327;51.328;12.324;2023-07-20T06:59:27;52611.81;;;-144.47;86.02
64076;BME280;50327;51.328;12.324;2023-07-20T07:01:52;52601.88;;;-144.47;85.28
64076;BME280;50327;51.328;12.324;2023-07-20T07:04:19;52627.69;;;-144.47;83.63
64076;BME280;50327;51.328;12.324;2023-07-20T07:06:44;52649.53;;;-144.47;83.32
64076;BME280;50327;51.328;12.324;2023-07-20T07:09:10;52643.56;;;-144.47;83.25
64076;BME280;50327;51.328;12.324;2023-07-20T07:11:35;52619.75;;;-144.47;83.51
64076;BME280;50327;51.328;12.324;2023-07-20T07:14:01;52621.72;;;-144.47;83.85
64076;BME280;50327;51.328;12.324;2023-07-20T07:16:26;52603.84;;;-144.47;83.64
64076;BME280;50327;51.328;12.324;2023-07-20T07:18:52;52621.72;;;-144.47;82.36
64076;BME280;50327;51.328;12.324;2023-07-20T07:21:17;52605.84;;;-144.47;80.55
64076;BME280;50327;51.328;12.324;2023-07-20T07:23:43;52623.72;;;-144.47;78.49
64076;BME280;50327;51.328;12.324;2023-07-20T07:26:09;52613.78;;;-144.47;79.34
64076;BME280;50327;51.328;12.324;2023-07-20T07:28:34;52603.84;;;-144.47;80.55
64076;BME280;50327;51.328;12.324;2023-07-20T07:31:00;52639.59;;;-144.47;81.25
64076;BME280;50327;51.328;12.324;2023-07-20T07:33:26;52637.63;;;-144.47;82.15
64076;BME280;50327;51.328;12.324;2023-07-20T07:35:51;52639.59;;;-144.47;82.15
64076;BME280;50327;51.328;12.324;2023-07-20T07:38:20;52625.72;;;-144.47;82.78
64076;BME280;50327;51.328;12.324;2023-07-20T07:40:45;52625.72;;;-144.47;83.35
64076;BME280;50327;51.328;12.324;2023-07-20T07:43:11;52637.63;;;-144.47;83.39
64076;BME280;50327;51.328;12.324;2023-07-20T07:45:38;52605.84;;;-144.47;83.09
64076;BME280;50327;51.328;12.324;2023-07-20T07:48:05;52611.81;;;-144.47;82.43
64076;BME280;50327;51.328;12.324;2023-07-20T07:50:30;52627.69;;;-144.47;82.35
64076;BME280;50327;51.328;12.324;2023-07-20T07:52:56;52621.72;;;-144.47;81.95
64076;BME280;50327;51.328;12.324;2023-07-20T07:55:21;52637.63;;;-144.47;82.68
64076;BME280;50327;51.328;12.324;2023-07-20T07:57:47;52615.78;;;-144.47;82.75
64076;BME280;50327;51.328;12.324;2023-07-20T08:00:13;52621.72;;;-144.47;83.29
64076;BME280;50327;51.328;12.324;2023-07-20T08:02:43;52621.72;;;-144.47;83.40
64076;BME280;50327;51.328;12.324;2023-07-20T08:05:08;52627.69;;;-144.47;81.65
64076;BME280;50327;51.328;12.324;2023-07-20T08:07:33;52623.72;;;-144.47;81.03
64076;BME280;50327;51.328;12.324;2023-07-20T08:09:59;52631.66;;;-144.47;80.03
64076;BME280;50327;51.328;12.324;2023-07-20T08:12:26;52619.75;;;-144.47;78.55
64076;BME280;50327;51.328;12.324;2023-07-20T08:14:51;52625.72;;;-144.47;77.27
64076;BME280;50327;51.328;12.324;2023-07-20T08:17:16;52629.69;;;-144.47;77.56
64076;BME280;50327;51.328;12.324;2023-07-20T08:19:43;52615.78;;;-144.47;75.74
64076;BME280;50327;51.328;12.324;2023-07-20T08:22:09;52631.66;;;-144.47;75.27
64076;BME280;50327;51.328;12.324;2023-07-20T08:24:34;52645.56;;;-144.47;74.04
64076;BME280;50327;51.328;12.324;2023-07-20T08:27:00;52621.72;;;-144.47;73.89
64076;BME280;50327;51.328;12.324;2023-07-20T08:29:25;52603.84;;;-144.47;73.63
64076;BME280;50327;51.328;12.324;2023-07-20T08:31:51;52605.84;;;-144.47;73.09
64076;BME280;50327;51.328;12.324;2023-07-20T08:34:16;52657.47;;;-144.47;72.97
64076;BME280;50327;51.328;12.324;2023-07-20T08:36:42;52621.72;;;-144.47;73.30
64076;BME280;50327;51.328;12.324;2023-07-20T08:39:07;52627.69;;;-144.47;74.38
64076;BME280;50327;51.328;12.324;2023-07-20T08:41:34;52645.56;;;-144.47;73.45
64076;BME280;50327;51.328;12.324;2023-07-20T08:44:00;52637.63;;;-144.47;72.67
64076;BME280;50327;51.328;12.324;2023-07-20T08:46:27;52617.75;;;-144.47;72.55
64076;BME280;50327;51.328;12.324;2023-07-20T08:48:53;52603.84;;;-144.47;72.15
64076;BME280;50327;51.328;12.324;2023-07-20T08:51:20;52609.81;;;-144.47;71.99
64076;BME280;50327;51.328;12.324;2023-07-20T08:53:47;52637.63;;;-144.47;71.63
64076;BME280;50327;51.328;12.324;2023-07-20T08:56:13;52643.56;;;-144.47;71.37
64076;BME280;50327;51.328;12.324;2023-07-20T08:58:43;52621.72;;;-144.47;71.07
64076;BME280;50327;51.328;12.324;2023-07-20T09:01:10;52633.66;;;-144.47;68.74
64076;BME280;50327;51.328;12.324;2023-07-20T09:03:36;52631.66;;;-144.47;68.20
64076;BME280;50327;51.328;12.324;2023-07-20T09:06:05;52619.75;;;-144.47;65.99
64076;BME280;50327;51.328;12.324;2023-07-20T09:08:31;52619.75;;;-144.47;65.96
64076;BME280;50327;51.328;12.324;2023-07-20T09:10:56;52623.72;;;-144.47;66.43
64076;BME280;50327;51.328;12.324;2023-07-20T09:13:21;52655.50;;;-144.47;65.78
64076;BME280;50327;51.328;12.324;2023-07-20T09:15:48;52641.59;;;-144.47;66.54
64076;BME280;50327;51.328;12.324;2023-07-20T09:18:29;52621.72;;;-144.47;65.79
64076;BME280;50327;51.328;12.324;2023-07-20T09:21:14;52625.72;;;-144.47;65.51
64076;BME280;50327;51.328;12.324;2023-07-20T09:23:42;52633.66;;;-144.47;64.87
64076;BME280;50327;51.328;12.324;2023-07-20T09:26:12;52641.59;;;-144.47;65.91
64076;BME280;50327;51.328;12.324;2023-07-20T09:28:49;52635.63;;;-144.47;64.87
64076;BME280;50327;51.328;12.324;2023-07-20T09:31:20;52659.47;;;-144.47;65.29
64076;BME280;50327;51.328;12.324;2023-07-20T09:33:47;52659.47;;;-144.47;65.80
64076;BME280;50327;51.328;12.324;2023-07-20T09:36:13;52617.75;;;-144.47;64.49
64076;BME280;50327;51.328;12.324;2023-07-20T09:38:42;52649.53;;;-144.47;64.89
64076;BME280;50327;51.328;12.324;2023-07-20T09:41:14;52629.69;;;-144.47;66.66
64076;BME280;50327;51.328;12.324;2023-07-20T09:43:40;52651.53;;;-144.47;66.41
64076;BME280;50327;51.328;12.324;2023-07-20T09:46:06;52621.72;;;-144.47;72.70
64076;BME280;50327;51.328;12.324;2023-07-20T09:48:32;52617.75;;;-144.47;79.22
64076;BME280;50327;51.328;12.324;2023-07-20T09:50:57;52625.72;;;-144.47;100.00
64076;BME280;50327;51.328;12.324;2023-07-20T09:54:19;62369.91;;;-144.48;100.00
64076;BME280;50327;51.328;12.324;2023-07-20T09:56:47;62369.91;;;-144.48;100.00
64076;BME280;50327;51.328;12.324;2023-07-20T09:59:13;62369.91;;;-144.48;100.00
64076;BME280;50327;51.328;12.324;2023-07-20T10:01:41;62369.91;;;-144.48;100.00
64076;BME280;50327;51.328;12.324;2023-07-20T10:04:09;62369.91;;;-144.48;100.00
64076;BME280;50327;51.328;12.324;2023-07-20T10:06:36;62369.91;;;-144.48;100.00
64076;BME280;50327;51.328;12.324;2023-07-20T10:09:05;62369.91;;;-144.48;100.00
64076;BME280;50327;51.328;12.324;2023-07-20T10:11:35;62369.91;;;-144.48;100.00
64076;BME280;50327;51.328;12.324;2023-07-20T10:14:03;62369.91;;;-144.48;100.00
64076;BME280;50327;51.328;12.324;2023-07-20T10:16:39;62369.91;;;-144.48;100.00
64076;BME280;50327;51.328;12.324;2023-07-20T10:21:55;62369.91;;;-144.48;100.00
64076;BME280;50327;51.328;12.324;2023-07-20T10:24:23;62369.91;;;-144.48;100.00
64076;BME280;50327;51.328;12.324;2023-07-20T10:26:49;62369.91;;;-144.48;100.00
64076;BME280;50327;51.328;12.324;2023-07-20T10:29:15;62369.91;;;-144.48;100.00
64076;BME280;50327;51.328;12.324;2023-07-20T10:31:42;62369.91;;;-144.48;100.00
64076;BME280;50327;51.328;12.324;2023-07-20T10:34:08;62369.91;;;-144.48;100.00
64076;BME280;50327;51.328;12.324;2023-07-20T10:36:43;62369.91;;;-144.48;100.00
64076;BME280;50327;51.328;12.324;2023-07-20T10:39:25;62369.91;;;-144.48;100.00
64076;BME280;50327;51.328;12.324;2023-07-20T10:42:03;62369.91;;;-144.48;100.00
64076;BME280;50327;51.328;12.324;2023-07-20T10:44:30;62369.91;;;-144.48;100.00
64076;BME280;50327;51.328;12.324;2023-07-20T10:47:00;62369.91;;;-144.48;100.00
64076;BME280;50327;51.328;12.324;2023-07-20T10:49:26;62369.91;;;-144.48;100.00
64076;BME280;50327;51.328;12.324;2023-07-20T10:51:59;62369.91;;;-144.48;100.00
64076;BME280;50327;51.328;12.324;2023-07-20T10:56:50;62369.91;;;-144.48;100.00
64076;BME280;50327;51.328;12.324;2023-07-20T11:01:47;62369.91;;;-144.48;100.00
64076;BME280;50327;51.328;12.324;2023-07-20T11:04:15;62369.91;;;-144.48;100.00
64076;BME280;50327;51.328;12.324;2023-07-20T11:06:45;62369.91;;;-144.48;100.00
64076;BME280;50327;51.328;12.324;2023-07-20T11:11:44;62369.91;;;-144.48;100.00
64076;BME280;50327;51.328;12.324;2023-07-20T11:16:48;62369.91;;;-144.48;100.00
64076;BME280;50327;51.328;12.324;2023-07-20T11:19:24;62369.91;;;-144.48;100.00
64076;BME280;50327;51.328;12.324;2023-07-20T11:22:49;62369.91;;;-144.48;100.00
64076;BME280;50327;51.328;12.324;2023-07-20T11:26:16;62369.91;;;-144.48;100.00
64076;BME280;50327;51.328;12.324;2023-07-20T11:29:39;62369.91;;;-144.48;100.00
64076;BME280;50327;51.328;12.324;2023-07-20T11:33:04;62369.91;;;-144.48;100.00
64076;BME280;50327;51.328;12.324;2023-07-20T11:36:28;62369.91;;;-144.48;100.00
64076;BME280;50327;51.328;12.324;2023-07-20T11:39:55;62369.91;;;-144.48;100.00
64076;BME280;50327;51.328;12.324;2023-07-20T11:43:20;62369.91;;;-144.48;100.00
64076;BME280;50327;51.328;12.324;2023-07-20T11:46:47;62369.91;;;-144.48;100.00
64076;BME280;50327;51.328;12.324;2023-07-20T11:50:10;62369.91;;;-144.48;100.00
64076;BME280;50327;51.328;12.324;2023-07-20T11:53:37;62369.91;;;-144.48;100.00
64076;BME280;50327;51.328;12.324;2023-07-20T11:57:02;62369.91;;;-144.48;100.00
64076;BME280;50327;51.328;12.324;2023-07-20T12:00:26;62369.91;;;-144.48;100.00
64076;BME280;50327;51.328;12.324;2023-07-20T12:03:51;62369.91;;;-144.48;100.00
64076;BME280;50327;51.328;12.324;2023-07-20T12:07:16;62369.91;;;-144.48;100.00
64076;BME280;50327;51.328;12.324;2023-07-20T12:10:40;62369.91;;;-144.48;100.00
64076;BME280;50327;51.328;12.324;2023-07-20T12:14:08;62369.91;;;-144.48;100.00
64076;BME280;50327;51.328;12.324;2023-07-20T12:17:33;62369.91;;;-144.48;100.00
64076;BME280;50327;51.328;12.324;2023-07-20T12:20:58;62369.91;;;-144.48;100.00
64076;BME280;50327;51.328;12.324;2023-07-20T12:24:22;62369.91;;;-144.48;100.00
64076;BME280;50327;51.328;12.324;2023-07-20T12:27:47;62369.91;;;-144.48;100.00
64076;BME280;50327;51.328;12.324;2023-07-20T12:31:11;62369.91;;;-144.48;100.00
64076;BME280;50327;51.328;12.324;2023-07-20T12:34:36;62369.91;;;-144.48;100.00
64076;BME280;50327;51.328;12.324;2023-07-20T12:38:02;62369.91;;;-144.48;100.00
64076;BME280;50327;51.328;12.324;2023-07-20T12:41:26;62369.91;;;-144.48;100.00
64076;BME280;50327;51.328;12.324;2023-07-20T12:44:50;62369.91;;;-144.48;100.00
64076;BME280;50327;51.328;12.324;2023-07-20T12:48:15;62369.91;;;-144.48;100.00
64076;BME280;50327;51.328;12.324;2023-07-20T12:51:39;62369.91;;;-144.48;100.00
64076;BME280;50327;51.328;12.324;2023-07-20T12:55:03;62369.91;;;-144.48;100.00
64076;BME280;50327;51.328;12.324;2023-07-20T12:58:27;62369.91;;;-144.48;100.00
64076;BME280;50327;51.328;12.324;2023-07-20T13:01:51;62369.91;;;-144.48;100.00
64076;BME280;50327;51.328;12.324;2023-07-20T13:05:15;62369.91;;;-144.48;100.00
64076;BME280;50327;51.328;12.324;2023-07-20T13:08:40;62369.91;;;-144.48;100.00
64076;BME280;50327;51.328;12.324;2023-07-20T13:12:04;62369.91;;;-144.48;100.00
64076;BME280;50327;51.328;12.324;2023-07-20T13:15:31;62369.91;;;-144.48;100.00
64076;BME280;50327;51.328;12.324;2023-07-20T13:18:56;62369.91;;;-144.48;100.00
64076;BME280;50327;51.328;12.324;2023-07-20T13:22:20;62369.91;;;-144.48;100.00
64076;BME280;50327;51.328;12.324;2023-07-20T13:25:44;62369.91;;;-144.48;100.00
64076;BME280;50327;51.328;12.324;2023-07-20T13:29:08;62369.91;;;-144.48;100.00